createdAt,value
2023-05-01T00:01:18.910Z,6.68
2023-05-01T00:04:22.813Z,6.44
2023-05-01T00:07:29.433Z,6.48
2023-05-01T00:10:32.474Z,6.51
2023-05-01T00:13:35.527Z,6.50
2023-05-01T00:16:38.611Z,6.50
2023-05-01T00:19:41.871Z,6.57
2023-05-01T00:22:46.218Z,6.75
2023-05-01T00:25:49.474Z,6.66
2023-05-01T00:28:52.566Z,6.69
2023-05-01T00:31:56.084Z,6.64
2023-05-01T00:34:59.554Z,6.52
2023-05-01T00:38:04.303Z,6.51
2023-05-01T00:41:07.449Z,6.56
2023-05-01T00:44:10.770Z,6.53
2023-05-01T00:47:14.690Z,6.59
2023-05-01T00:50:18.365Z,6.64
2023-05-01T00:53:23.528Z,6.67
2023-05-01T00:56:27.962Z,6.70
2023-05-01T00:59:31.210Z,6.63
2023-05-01T01:02:34.376Z,6.50
2023-05-01T01:05:47.825Z,6.54
2023-05-01T01:09:07.685Z,6.46
2023-05-01T01:12:22.368Z,6.45
2023-05-01T01:15:32.415Z,6.46
2023-05-01T01:18:42.607Z,6.37
2023-05-01T01:21:51.012Z,6.29
2023-05-01T01:25:23.067Z,6.26
2023-05-01T01:29:04.570Z,6.14
2023-05-01T01:32:32.739Z,6.05
2023-05-01T01:35:39.884Z,6.09
2023-05-01T01:38:47.482Z,6.13
2023-05-01T01:41:53.455Z,6.12
2023-05-01T01:45:04.964Z,6.01
2023-05-01T01:48:12.508Z,5.93
2023-05-01T01:51:20.565Z,5.88
2023-05-01T01:54:31.511Z,5.89
2023-05-01T01:57:37.050Z,5.76
2023-05-01T02:00:42.908Z,5.73
2023-05-01T02:03:48.115Z,5.71
2023-05-01T02:06:55.641Z,5.60
2023-05-01T02:09:59.993Z,5.62
2023-05-01T02:13:04.275Z,5.65
2023-05-01T02:16:09.345Z,5.61
2023-05-01T02:19:14.122Z,5.63
2023-05-01T02:22:20.141Z,5.58
2023-05-01T02:25:25.460Z,5.51
2023-05-01T02:28:31.027Z,5.45
2023-05-01T02:31:34.150Z,5.46
2023-05-01T02:34:37.425Z,5.44
2023-05-01T02:37:41.941Z,5.43
2023-05-01T02:40:50.116Z,5.40
2023-05-01T02:43:59.857Z,5.28
2023-05-01T02:47:04.580Z,5.21
2023-05-01T02:50:09.741Z,5.14
2023-05-01T02:53:15.671Z,5.15
2023-05-01T02:56:28.020Z,5.09
2023-05-01T02:59:31.290Z,4.97
2023-05-01T03:02:34.553Z,4.87
2023-05-01T03:05:38.179Z,4.79
2023-05-01T03:08:43.183Z,4.68
2023-05-01T03:11:46.587Z,4.68
2023-05-01T03:14:49.833Z,4.63
2023-05-01T03:17:52.891Z,4.61
2023-05-01T03:20:57.610Z,4.65
2023-05-01T03:24:03.511Z,4.61
2023-05-01T03:27:07.665Z,4.58
2023-05-01T03:30:13.026Z,4.52
2023-05-01T03:33:17.683Z,4.51
2023-05-01T03:36:22.013Z,4.52
2023-05-01T03:39:28.472Z,4.59
2023-05-01T03:42:49.810Z,4.61
2023-05-01T03:45:59.467Z,4.69
2023-05-01T03:49:03.450Z,4.66
2023-05-01T03:52:11.011Z,4.65
2023-05-01T03:55:18.557Z,4.71
2023-05-01T03:58:23.393Z,4.69
2023-05-01T04:01:26.954Z,4.71
2023-05-01T04:04:30.903Z,4.71
2023-05-01T04:07:34.883Z,4.67
2023-05-01T04:10:42.095Z,4.72
2023-05-01T04:13:48.313Z,4.69
2023-05-01T04:16:52.306Z,4.78
2023-05-01T04:19:56.063Z,4.81
2023-05-01T04:22:59.512Z,4.83
2023-05-01T04:26:04.236Z,4.91
2023-05-01T04:29:07.267Z,4.95
2023-05-01T04:32:11.049Z,4.97
2023-05-01T04:35:14.974Z,5.09
2023-05-01T04:38:20.125Z,5.16
2023-05-01T04:41:25.250Z,5.21
2023-05-01T04:44:28.762Z,5.26
2023-05-01T04:47:32.031Z,5.37
2023-05-01T04:50:35.155Z,5.45
2023-05-01T04:53:38.206Z,5.47
2023-05-01T04:56:45.842Z,5.48
2023-05-01T04:59:49.220Z,5.55
2023-05-01T05:02:52.376Z,5.59
2023-05-01T05:05:56.123Z,5.67
2023-05-01T05:09:05.605Z,5.80
2023-05-01T05:12:11.302Z,5.84
2023-05-01T05:15:15.053Z,5.89
2023-05-01T05:18:18.403Z,5.95
2023-05-01T05:21:21.769Z,6.05
2023-05-01T05:24:28.874Z,6.12
2023-05-01T05:27:38.016Z,6.19
2023-05-01T05:30:41.053Z,6.25
2023-05-01T05:33:46.228Z,6.36
2023-05-01T05:36:51.233Z,6.46
2023-05-01T05:39:58.390Z,6.54
2023-05-01T05:43:03.222Z,6.70
2023-05-01T05:46:07.330Z,6.84
2023-05-01T05:49:14.948Z,6.99
2023-05-01T05:52:18.042Z,7.12
2023-05-01T05:55:24.481Z,7.23
2023-05-01T05:58:39.106Z,7.48
2023-05-01T06:01:42.723Z,7.55
2023-05-01T06:04:46.130Z,7.75
2023-05-01T06:07:50.153Z,7.95
2023-05-01T06:10:55.147Z,8.14
2023-05-01T06:14:00.256Z,8.28
2023-05-01T06:17:03.489Z,8.51
2023-05-01T06:20:08.264Z,8.66
2023-05-01T06:23:13.617Z,8.86
2023-05-01T06:26:50.723Z,9.03
2023-05-01T06:29:58.272Z,9.34
2023-05-01T06:33:01.693Z,9.55
2023-05-01T06:36:05.798Z,9.82
2023-05-01T06:39:08.856Z,10.04
2023-05-01T06:42:16.018Z,10.07
2023-05-01T06:45:20.881Z,10.33
2023-05-01T06:48:25.384Z,10.44
2023-05-01T06:51:28.498Z,10.65
2023-05-01T06:54:31.562Z,10.82
2023-05-01T06:57:34.841Z,11.12
2023-05-01T07:00:39.309Z,11.28
2023-05-01T07:03:42.432Z,11.49
2023-05-01T07:06:45.640Z,11.57
2023-05-01T07:09:48.821Z,11.58
2023-05-01T07:12:51.897Z,11.74
2023-05-01T07:15:56.269Z,11.97
2023-05-01T07:18:59.586Z,11.94
2023-05-01T07:22:03.267Z,12.05
2023-05-01T07:25:08.440Z,12.21
2023-05-01T07:28:11.550Z,12.50
2023-05-01T07:31:16.193Z,12.68
2023-05-01T07:34:19.638Z,12.84
2023-05-01T07:37:23.820Z,12.97
2023-05-01T07:40:29.973Z,13.21
2023-05-01T07:43:34.088Z,13.40
2023-05-01T07:46:39.302Z,13.41
2023-05-01T07:49:42.777Z,13.33
2023-05-01T07:52:58.920Z,13.26
2023-05-01T07:56:11.848Z,13.21
2023-05-01T07:59:15.282Z,13.51
2023-05-01T08:02:19.799Z,13.90
2023-05-01T08:05:22.873Z,14.00
2023-05-01T08:08:26.151Z,14.10
2023-05-01T08:11:30.237Z,14.35
2023-05-01T08:14:33.372Z,14.14
2023-05-01T08:17:38.655Z,14.52
2023-05-01T08:20:44.779Z,14.61
2023-05-01T08:23:54.703Z,14.47
2023-05-01T08:26:58.471Z,14.83
2023-05-01T08:30:09.412Z,14.88
2023-05-01T08:33:16.612Z,14.80
2023-05-01T08:36:24.349Z,14.86
2023-05-01T08:39:27.498Z,14.65
2023-05-01T08:42:32.254Z,14.80
2023-05-01T08:45:38.266Z,15.01
2023-05-01T08:48:44.169Z,15.19
2023-05-01T08:51:50.023Z,15.58
2023-05-01T08:54:57.676Z,15.80
2023-05-01T08:58:03.543Z,16.14
2023-05-01T09:01:07.694Z,16.00
2023-05-01T09:04:12.820Z,16.20
2023-05-01T09:07:16.146Z,16.14
2023-05-01T09:10:21.384Z,15.98
2023-05-01T09:13:26.273Z,16.09
2023-05-01T09:16:30.933Z,16.04
2023-05-01T09:19:35.624Z,16.20
2023-05-01T09:22:40.181Z,16.40
2023-05-01T09:25:43.650Z,16.66
2023-05-01T09:28:48.944Z,17.23
2023-05-01T09:31:52.032Z,17.45
2023-05-01T09:35:10.667Z,17.44
2023-05-01T09:38:20.020Z,17.13
2023-05-01T09:41:27.838Z,17.58
2023-05-01T09:44:31.078Z,17.52
2023-05-01T09:47:35.147Z,17.43
2023-05-01T09:50:42.058Z,17.59
2023-05-01T09:53:47.636Z,17.64
2023-05-01T09:56:51.202Z,17.43
2023-05-01T10:00:08.274Z,17.58
2023-05-01T10:03:15.728Z,17.77
2023-05-01T10:06:29.669Z,18.06
2023-05-01T10:09:32.735Z,18.20
2023-05-01T10:12:37.747Z,18.50
2023-05-01T10:15:41.139Z,18.29
2023-05-01T10:18:45.702Z,18.56
2023-05-01T10:21:50.671Z,18.37
2023-05-01T10:24:53.755Z,18.72
2023-05-01T10:27:58.105Z,19.36
2023-05-01T10:31:09.005Z,18.97
2023-05-01T10:34:19.433Z,18.68
2023-05-01T10:37:29.502Z,18.72
2023-05-01T10:40:47.267Z,18.91
2023-05-01T10:44:27.331Z,18.98
2023-05-01T10:47:59.854Z,19.23
2023-05-01T10:51:12.486Z,19.26
2023-05-01T10:54:27.195Z,19.23
2023-05-01T10:57:43.631Z,19.55
2023-05-01T11:01:34.564Z,19.79
2023-05-01T11:04:56.188Z,19.82
2023-05-01T11:08:30.455Z,18.82
2023-05-01T11:11:53.278Z,19.34
2023-05-01T11:15:08.432Z,19.09
2023-05-01T11:18:12.192Z,19.33
2023-05-01T11:21:16.490Z,19.35
2023-05-01T11:24:20.121Z,19.19
2023-05-01T11:27:26.310Z,19.13
2023-05-01T11:30:38.265Z,19.19
2023-05-01T11:33:41.311Z,19.39
2023-05-01T11:36:51.952Z,19.42
2023-05-01T11:39:56.748Z,19.52
2023-05-01T11:43:10.398Z,19.41
2023-05-01T11:46:14.698Z,19.80
2023-05-01T11:49:28.530Z,19.66
2023-05-01T11:52:31.554Z,20.45
2023-05-01T11:55:36.047Z,20.89
2023-05-01T11:58:40.444Z,21.41
2023-05-01T12:01:44.901Z,21.34
2023-05-01T12:04:48.389Z,21.38
2023-05-01T12:07:51.649Z,21.11
2023-05-01T12:10:57.100Z,21.18
2023-05-01T12:14:04.678Z,20.91
2023-05-01T12:17:09.755Z,20.57
2023-05-01T12:20:13.716Z,20.41
2023-05-01T12:23:17.990Z,20.47
2023-05-01T12:26:23.763Z,20.68
2023-05-01T12:29:40.866Z,21.09
2023-05-01T12:32:56.690Z,21.13
2023-05-01T12:36:12.259Z,21.36
2023-05-01T12:39:15.429Z,20.64
2023-05-01T12:42:18.628Z,20.52
2023-05-01T12:45:23.106Z,20.48
2023-05-01T12:48:30.351Z,20.87
2023-05-01T12:51:34.292Z,21.13
2023-05-01T12:54:39.935Z,21.25
2023-05-01T12:57:57.485Z,21.32
2023-05-01T13:01:02.155Z,20.67
2023-05-01T13:04:05.598Z,21.09
2023-05-01T13:07:13.035Z,21.45
2023-05-01T13:10:19.170Z,21.37
2023-05-01T13:13:30.416Z,21.96
2023-05-01T13:16:35.240Z,21.98
2023-05-01T13:19:39.542Z,22.12
2023-05-01T13:22:42.918Z,21.74
2023-05-01T13:25:47.490Z,21.94
2023-05-01T13:28:51.214Z,21.74
2023-05-01T13:31:55.893Z,21.73
2023-05-01T13:35:03.183Z,22.06
2023-05-01T13:38:12.581Z,22.12
2023-05-01T13:41:19.335Z,22.30
2023-05-01T13:44:23.555Z,22.41
2023-05-01T13:47:28.448Z,22.28
2023-05-01T13:50:31.625Z,22.05
2023-05-01T13:53:35.258Z,22.77
2023-05-01T13:56:40.596Z,23.09
2023-05-01T13:59:46.290Z,22.98
2023-05-01T14:02:53.474Z,22.59
2023-05-01T14:05:56.982Z,22.71
2023-05-01T14:09:00.932Z,22.79
2023-05-01T14:12:04.263Z,22.27
2023-05-01T14:15:14.518Z,22.60
2023-05-01T14:18:19.721Z,22.84
2023-05-01T14:21:30.482Z,21.86
2023-05-01T14:24:37.797Z,22.06
2023-05-01T14:27:47.024Z,22.42
2023-05-01T14:30:57.507Z,23.52
2023-05-01T14:34:19.602Z,23.33
2023-05-01T14:37:22.699Z,22.92
2023-05-01T14:40:28.267Z,22.97
2023-05-01T14:43:32.200Z,22.92
2023-05-01T14:46:38.679Z,22.75
2023-05-01T14:49:43.659Z,22.84
2023-05-01T14:52:47.483Z,22.09
2023-05-01T14:55:54.300Z,22.95
2023-05-01T14:58:58.509Z,23.14
2023-05-01T15:02:05.834Z,23.26
2023-05-01T15:05:11.113Z,22.83
2023-05-01T15:08:27.235Z,22.95
2023-05-01T15:11:42.822Z,23.66
2023-05-01T15:14:57.764Z,23.52
2023-05-01T15:18:02.192Z,23.50
2023-05-01T15:21:09.435Z,23.57
2023-05-01T15:24:12.529Z,22.96
2023-05-01T15:27:21.499Z,22.89
2023-05-01T15:30:25.111Z,22.82
2023-05-01T15:33:28.559Z,22.09
2023-05-01T15:36:33.011Z,22.26
2023-05-01T15:39:41.570Z,22.49
2023-05-01T15:42:45.474Z,21.98
2023-05-01T15:45:49.215Z,21.62
2023-05-01T15:48:52.293Z,21.78
2023-05-01T15:51:58.840Z,21.78
2023-05-01T15:55:54.173Z,21.17
2023-05-01T15:59:17.956Z,21.10
2023-05-01T16:02:23.198Z,21.22
2023-05-01T16:05:26.380Z,21.41
2023-05-01T16:08:33.343Z,21.18
2023-05-01T16:11:36.710Z,21.22
2023-05-01T16:14:40.980Z,21.38
2023-05-01T16:17:45.667Z,21.53
2023-05-01T16:20:48.784Z,21.33
2023-05-01T16:23:54.247Z,20.80
2023-05-01T16:27:03.622Z,20.62
2023-05-01T16:30:09.049Z,20.81
2023-05-01T16:33:18.412Z,20.67
2023-05-01T16:36:22.207Z,20.41
2023-05-01T16:39:26.822Z,20.32
2023-05-01T16:42:29.902Z,20.47
2023-05-01T16:45:33.311Z,20.20
2023-05-01T16:48:36.474Z,20.15
2023-05-01T16:51:41.182Z,20.29
2023-05-01T16:54:45.552Z,20.14
2023-05-01T16:57:48.701Z,19.97
2023-05-01T17:00:51.821Z,20.06
2023-05-01T17:03:55.289Z,20.17
2023-05-01T17:06:58.486Z,19.92
2023-05-01T17:10:04.235Z,20.01
2023-05-01T17:13:09.467Z,20.00
2023-05-01T17:16:12.903Z,19.89
2023-05-01T17:19:15.995Z,19.72
2023-05-01T17:22:19.590Z,19.70
2023-05-01T17:56:20.772Z,18.16
2023-05-01T18:00:19.382Z,18.02
2023-05-01T18:03:32.939Z,18.03
2023-05-01T18:07:39.573Z,17.98
2023-05-01T18:11:00.339Z,17.75
2023-05-01T18:14:05.443Z,17.66
2023-05-01T18:17:08.721Z,17.49
2023-05-01T18:20:16.861Z,17.34
2023-05-01T18:23:22.427Z,17.32
2023-05-01T18:26:27.588Z,17.34
2023-05-01T18:29:31.291Z,17.25
2023-05-01T18:32:46.984Z,17.10
2023-05-01T18:35:51.513Z,16.89
2023-05-01T18:39:02.570Z,16.72
2023-05-01T18:42:08.087Z,16.51
2023-05-01T18:45:37.834Z,16.46
2023-05-01T18:48:41.273Z,16.31
2023-05-01T18:51:48.267Z,16.25
2023-05-01T18:54:56.656Z,16.11
2023-05-01T18:58:02.012Z,16.06
2023-05-01T19:01:05.252Z,15.86
2023-05-01T19:04:08.474Z,15.78
2023-05-01T19:07:11.776Z,15.71
2023-05-01T19:10:15.102Z,15.76
2023-05-01T19:13:19.424Z,15.67
2023-05-01T19:16:22.558Z,15.56
2023-05-01T19:19:27.278Z,15.46
2023-05-01T19:22:30.270Z,15.47
2023-05-01T19:25:34.269Z,15.38
2023-05-01T19:28:38.847Z,15.35
2023-05-01T19:31:42.080Z,15.34
2023-05-01T19:34:45.181Z,15.25
2023-05-01T19:37:50.140Z,15.24
2023-05-01T19:40:57.416Z,15.12
2023-05-01T19:44:02.978Z,15.08
2023-05-01T19:47:09.449Z,15.00
2023-05-01T19:50:12.899Z,14.96
2023-05-01T19:53:16.070Z,14.89
2023-05-01T19:56:24.604Z,14.88
2023-05-01T19:59:30.633Z,14.80
2023-05-01T20:02:34.360Z,14.73
2023-05-01T20:05:37.670Z,14.74
2023-05-01T20:08:41.904Z,14.66
2023-05-01T20:11:44.870Z,14.61
2023-05-01T20:14:49.524Z,14.55
2023-05-01T20:17:52.760Z,14.57
2023-05-01T20:20:55.834Z,14.53
2023-05-01T20:23:58.876Z,14.39
2023-05-01T20:27:04.758Z,14.36
2023-05-01T20:30:11.550Z,14.24
2023-05-01T20:33:15.128Z,14.21
2023-05-01T20:36:18.297Z,14.17
2023-05-01T20:39:21.348Z,14.12
2023-05-01T21:21:31.888Z,13.90
2023-05-01T21:24:36.415Z,13.86
2023-05-01T21:27:42.474Z,13.86
2023-05-01T21:30:48.838Z,13.84
2023-05-01T21:33:53.508Z,13.84
2023-05-01T21:36:58.167Z,13.85
2023-05-01T21:40:04.084Z,13.87
2023-05-01T21:43:10.168Z,13.86
2023-05-01T21:46:17.662Z,13.81
2023-05-01T21:49:23.109Z,13.77
2023-05-01T21:52:30.141Z,13.72
2023-05-01T21:55:33.279Z,13.72
2023-05-01T21:58:36.458Z,13.75
2023-05-01T22:01:41.097Z,13.73
2023-05-01T22:04:55.959Z,13.70
2023-05-01T22:08:16.498Z,13.63
2023-05-01T22:11:23.198Z,13.63
2023-05-01T22:14:33.630Z,13.56
2023-05-01T22:17:47.032Z,13.59
2023-05-01T22:20:50.385Z,13.55
2023-05-01T22:23:55.435Z,13.59
2023-05-01T22:26:58.433Z,13.57
2023-05-01T22:30:01.903Z,13.58
2023-05-01T22:33:05.492Z,13.50
2023-05-01T22:36:08.591Z,13.45
2023-05-01T22:39:12.936Z,13.32
2023-05-01T22:42:16.276Z,13.22
2023-05-01T22:45:19.305Z,13.19
2023-05-01T22:48:22.344Z,13.26
2023-05-01T22:51:26.600Z,13.56
2023-05-01T22:54:30.987Z,13.84
2023-05-01T22:57:34.334Z,14.30
2023-05-01T23:00:37.394Z,14.60
2023-05-01T23:03:40.614Z,14.89
2023-05-01T23:06:44.570Z,14.95
2023-05-01T23:09:49.224Z,14.92
2023-05-01T23:12:52.336Z,14.83
2023-05-01T23:15:55.318Z,14.83
2023-05-01T23:18:58.665Z,14.79
2023-05-01T23:22:09.322Z,14.72
2023-05-01T23:25:18.641Z,14.71
2023-05-01T23:28:26.018Z,14.58
2023-05-01T23:31:29.232Z,14.55
2023-05-01T23:34:33.277Z,14.51
2023-05-01T23:37:36.358Z,14.63
2023-05-01T23:40:41.144Z,14.63
2023-05-01T23:43:46.600Z,14.58
2023-05-01T23:46:49.771Z,14.59
2023-05-01T23:49:53.168Z,14.58
2023-05-01T23:52:57.448Z,14.52
2023-05-01T23:56:02.132Z,14.45
2023-05-01T23:59:05.168Z,14.26
